Anton, TX

1:47 PM CDT on August 30, 2014 (GMT -0500)
WT_Meso Anton 6S | Change Station
CLOSE
Current Station
Personal Weather Station
Location: Anton, TX
Elevation: 3404 ft
Nearby Weather Stations

Elev 3404 ft 33.73 °N, 102.19 °W | Updated 52 minutes ago

Partly Cloudy
Partly Cloudy
86 °F
Feels Like 84 °F
N
4
Wind Variable Wind from WSW
Gusts 7.0 mph

Today
High -- | Low -- °F
--% Chance of Precip.
Yesterday
High -- | Low -- °F
Precip. -- in
7:21 AM 8:16 PM
Waxing Crescent, 24% visible
Pressure 29.91 in
Visibility 10.0 miles
Clouds Few 6000 ft
Few 26000 ft
Scattered Clouds 30000 ft
Heat Index 84 °F
Dew Point 54 °F
Humidity 34%
Rainfall -999.00 in
Snow Depth Not available.
UV 9 out of 12
Pollen 9.60 out of 12
Air Quality Not available.
Flu Activity Not available.
METAR KLBB 301753Z VRB05KT 10SM FEW060 FEW260 SCT300 31/14 A3007 RMK AO2 SLP129 MDT CU DSNT E-SE AND NW T03060144 10311 20167 58004

More Conditions Fewer Conditions

Pressure 29.91 in
Visibility 10.0 miles
Clouds Few 6000 ft
Few 26000 ft
Scattered Clouds 30000 ft
Heat Index 84 °F
Dew Point 54 °F
Humidity 34%
Rainfall -999.00 in
Snow Depth Not available.
UV 9 out of 12
Pollen 9.60 out of 12
Air Quality Not available.
Flu Activity Not available.
METAR KLBB 301753Z VRB05KT 10SM FEW060 FEW260 SCT300 31/14 A3007 RMK AO2 SLP129 MDT CU DSNT E-SE AND NW T03060144 10311 20167 58004

More Conditions Fewer Conditions

10-Day Weather Forecast

Almanac

Astronomy

Aug. 30, 2014 Rise Set
Actual Time 7:21 AM CDT 8:16 PM CDT
Civil Twilight 6:55 AM CDT 8:42 PM CDT
Nautical Twilight 6:25 AM CDT 9:12 PM CDT
Astronomical Twilight 5:54 AM CDT 9:43 PM CDT
Moon 11:55 AM CDT 11:08 PM CDT
Length of Visible Light 13h 46m
Length of Day
12h 55m
Tomorrow will be 2m 1s shorter.
Waxing Crescent, 24% of the Moon is Illuminated
Today
Waxing Crescent
Sep 2
First Quarter
Sep 8
Full
Sep 15
Last Quarter
Sep 24
New

Today's Extremes

State Highs State Lows

Community

WunderPhotos

Upload Photos

1,748,593 photos uploaded!

WunderBlogs® & News

Nearby

Snow Depth

Station Depth Elevation
No new snow has been reported.

Earthquake Activity

City Distance Mag. Time & Date
No recent earthquake activity has been reported nearby.
Minimum magnitude displayed is 2.5.

Coastal Water Temperatures

Place Temperature
No Stations Reporting

Nearby Weather Stations